Wetterdaten der Wetterstation 22117 Öjendorf (Hamburg)

Letzte Wetterlage 04.07.2015 10:06
Wetterdiagramm
Tabellarische Darstellung
Datum Temperatur Windchill Feuchte Luftdruck Windrichtung Windstärke Niederschlag
04.07.2015 10:16 27,4 °C 27,4 °C 49 % 1019,5 hPa 0 l/m²
04.07.2015 10:06 26,9 °C 26,9 °C 49 % 1019,5 hPa 0 l/m²
04.07.2015 09:56 26,6 °C 26,6 °C 50 % 1019,6 hPa 0 l/m²
04.07.2015 09:46 26,2 °C 26,2 °C 51 % 1019,7 hPa 0 l/m²
04.07.2015 09:36 25,9 °C 25,9 °C 51 % 1019,7 hPa 0 l/m²
04.07.2015 09:26 25,6 °C 25,6 °C 52 % 1019,9 hPa 0 l/m²
04.07.2015 09:16 25,4 °C 25,4 °C 55 % 1019,9 hPa 0 l/m²
04.07.2015 09:06 25,0 °C 25,0 °C 56 % 1020,0 hPa 0 l/m²
04.07.2015 08:56 24,8 °C 24,8 °C 56 % 1020,0 hPa 0 l/m²
04.07.2015 08:46 24,4 °C 24,4 °C 57 % 1020,1 hPa 0 l/m²
04.07.2015 08:36 24,0 °C 24,0 °C 58 % 1020,1 hPa 0 l/m²
04.07.2015 08:26 23,7 °C 23,7 °C 59 % 1020,1 hPa 0 l/m²
04.07.2015 08:16 23,3 °C 23,3 °C 60 % 1020,1 hPa 0 l/m²
04.07.2015 08:06 23,0 °C 23,0 °C 63 % 1020,2 hPa 0 l/m²
04.07.2015 07:56 22,6 °C 22,6 °C 64 % 1020,2 hPa 0 l/m²
04.07.2015 07:46 22,4 °C 22,4 °C 64 % 1020,3 hPa 0 l/m²
04.07.2015 07:36 22,0 °C 22,0 °C 65 % 1020,3 hPa 0 l/m²
04.07.2015 07:26 21,6 °C 21,6 °C 67 % 1020,3 hPa 0 l/m²
04.07.2015 07:16 21,3 °C 21,3 °C 69 % 1020,3 hPa 0 l/m²
04.07.2015 07:06 21,0 °C 21,0 °C 70 % 1020,3 hPa 0 l/m²
04.07.2015 06:56 20,7 °C 20,7 °C 74 % 1020,4 hPa 0 l/m²
04.07.2015 06:46 20,2 °C 20,2 °C 76 % 1020,5 hPa 0 l/m²
04.07.2015 06:36 19,8 °C 19,8 °C 76 % 1020,5 hPa 0 l/m²
04.07.2015 06:26 19,7 °C 19,7 °C 77 % 1020,6 hPa 0 l/m²
04.07.2015 06:16 19,3 °C 19,3 °C 79 % 1020,7 hPa 0 l/m²
Neue Wetterwarnung

Neue Niederschlagsmeldung
Neue Meldung
Regen Liveticker
    sehr starker Regen/Gewitter
    starker Regen/Gewitter
    mäßiger bis starker Regen
    mäßiger Regen
    leichter bis mäßiger Regen
    kein Regen